Westerdam — PINX — position and weather

sailwx.info

Track history (hours):
 
Tides and Currents Weather Stations Pressure Air Temp Water Temp Dewpoint Dewpoint Depression Visibility Wind Speed Wind Dir Waves Ship Positions

Westerdam

Operator: Holland America Line

Last reported at 2019-Dec-06 04:30 UTC. Time now 2019-Dec-06 05:34 UTC.
Position N 20°12' E 110°26'.

Type: Passenger vessel. MMSI: 244128000.

Date/timePositionNaut miles runAvg speedWind from/ knotsBaromVisibWave heightAir tempDewpointWater temp
2019-Dec-06 04:30N 20°12' E 110°26'5412.0
2019-Dec-06 00:00N 20°00' E 109°30'2323.3 020 / 351025.9 17.8-7.6
2019-Dec-05 23:00N 20°06' E 109°06'1817.9 010 / 501023.7 5.4 18.7-6.9
2019-Dec-05 22:00N 20°12' E 108°48'247 6.1 010 / 501023.7 5.4 18.7-6.9
2019-Dec-04 05:30N 16°08' E 108°12'1 0.9
2019-Dec-04 04:56N 16°07' E 108°13'0 0.0
2019-Dec-04 03:56N 16°07' E 108°13'0 0.0
2019-Dec-04 03:26N 16°07' E 108°13'0 0.0
2019-Dec-04 02:29N 16°07' E 108°13'0 0.0
2019-Dec-04 01:59N 16°07' E 108°13'0 0.0
2019-Dec-04 00:26N 16°07' E 108°13'0 0.0
2019-Dec-03 23:26N 16°07' E 108°13'0 0.0
2019-Dec-03 21:29N 16°07' E 108°13'0 0.0
2019-Dec-03 20:59N 16°07' E 108°13'0 0.0
2019-Dec-03 20:26N 16°07' E 108°13'0 0.0
2019-Dec-03 19:56N 16°07' E 108°13'0 0.0
2019-Dec-03 16:56N 16°07' E 108°13'0 0.0
2019-Dec-03 14:56N 16°07' E 108°13'0 0.0
2019-Dec-03 13:26N 16°07' E 108°13'0 0.0
2019-Dec-03 11:26N 16°07' E 108°13'0 0.0
2019-Dec-03 09:26N 16°07' E 108°13'0 0.0
2019-Dec-03 08:56N 16°07' E 108°13'0 0.0
2019-Dec-03 08:29N 16°07' E 108°13'0 0.0
2019-Dec-03 07:29N 16°07' E 108°13'0 0.0
2019-Dec-03 06:29N 16°07' E 108°13'0 0.0
2019-Dec-03 05:26N 16°07' E 108°13'0 0.0
2019-Dec-03 04:26N 16°07' E 108°13'0 0.0
2019-Dec-03 03:59N 16°07' E 108°13'0 0.0
2019-Dec-03 03:26N 16°07' E 108°13'0 0.0
2019-Dec-03 00:29N 16°07' E 108°13'0 0.0
2019-Dec-02 23:01N 16°07' E 108°13'1 2.2
2019-Dec-02 22:30N 16°08' E 108°12'6 6.1
2019-Dec-02 21:29N 16°11' E 108°18'29 8.2
2019-Dec-02 18:00N 16°12' E 108°48'72 9.0 020 / 301018.410.8 22.7 7.625.6
2019-Dec-02 10:00N 15°12' E 109°30'91 9.1 030 / 351016.3 5.4 24.5 9.226.0
2019-Dec-02 00:00N 13°42' E 109°42'72 9.0 360 / 301016.110.8 25.514.326.0
2019-Dec-01 16:00N 12°30' E 109°36'   360 / 301013.910.8 25.514.326.0
2019-Nov-29 10:00N 08°48' E 105°54'   070 / 341009.8 5.4 27.417.028.0
Track history (hours):
 
Tides and Currents Weather Stations Pressure Air Temp Water Temp Dewpoint Dewpoint Depression Visibility Wind Speed Wind Dir Waves Ship Positions

Westerdam

Operator: Holland America Line

Last reported at 2019-Dec-06 04:30 UTC. Time now 2019-Dec-06 05:34 UTC.
Position N 20°12' E 110°26'.

Type: Passenger vessel. MMSI: 244128000.

Date/timePositionNaut miles runAvg speedWind from/ knotsBaromVisibWave heightAir tempDewpointWater temp
2019-Dec-06 04:30N 20°12' E 110°26'5412.0
2019-Dec-06 00:00N 20°00' E 109°30'2323.3 020 / 351025.9 17.8-7.6
2019-Dec-05 23:00N 20°06' E 109°06'1817.9 010 / 501023.7 5.4 18.7-6.9
2019-Dec-05 22:00N 20°12' E 108°48'247 6.1 010 / 501023.7 5.4 18.7-6.9
2019-Dec-04 05:30N 16°08' E 108°12'1 0.9
2019-Dec-04 04:56N 16°07' E 108°13'0 0.0
2019-Dec-04 03:56N 16°07' E 108°13'0 0.0
2019-Dec-04 03:26N 16°07' E 108°13'0 0.0
2019-Dec-04 02:29N 16°07' E 108°13'0 0.0
2019-Dec-04 01:59N 16°07' E 108°13'0 0.0
2019-Dec-04 00:26N 16°07' E 108°13'0 0.0
2019-Dec-03 23:26N 16°07' E 108°13'0 0.0
2019-Dec-03 21:29N 16°07' E 108°13'0 0.0
2019-Dec-03 20:59N 16°07' E 108°13'0 0.0
2019-Dec-03 20:26N 16°07' E 108°13'0 0.0
2019-Dec-03 19:56N 16°07' E 108°13'0 0.0
2019-Dec-03 16:56N 16°07' E 108°13'0 0.0
2019-Dec-03 14:56N 16°07' E 108°13'0 0.0
2019-Dec-03 13:26N 16°07' E 108°13'0 0.0
2019-Dec-03 11:26N 16°07' E 108°13'0 0.0
2019-Dec-03 09:26N 16°07' E 108°13'0 0.0
2019-Dec-03 08:56N 16°07' E 108°13'0 0.0
2019-Dec-03 08:29N 16°07' E 108°13'0 0.0
2019-Dec-03 07:29N 16°07' E 108°13'0 0.0
2019-Dec-03 06:29N 16°07' E 108°13'0 0.0
2019-Dec-03 05:26N 16°07' E 108°13'0 0.0
2019-Dec-03 04:26N 16°07' E 108°13'0 0.0
2019-Dec-03 03:59N 16°07' E 108°13'0 0.0
2019-Dec-03 03:26N 16°07' E 108°13'0 0.0
2019-Dec-03 00:29N 16°07' E 108°13'0 0.0
2019-Dec-02 23:01N 16°07' E 108°13'1 2.2
2019-Dec-02 22:30N 16°08' E 108°12'6 6.1
2019-Dec-02 21:29N 16°11' E 108°18'29 8.2
2019-Dec-02 18:00N 16°12' E 108°48'72 9.0 020 / 301018.410.8 22.7 7.625.6
2019-Dec-02 10:00N 15°12' E 109°30'91 9.1 030 / 351016.3 5.4 24.5 9.226.0
2019-Dec-02 00:00N 13°42' E 109°42'72 9.0 360 / 301016.110.8 25.514.326.0
2019-Dec-01 16:00N 12°30' E 109°36'   360 / 301013.910.8 25.514.326.0
2019-Nov-29 10:00N 08°48' E 105°54'   070 / 341009.8 5.4 27.417.028.0

Dump ship's entire track history